sensor_id;sensor_type;location;lat;lon;timestamp;P1;durP1;ratioP1;P2;durP2;ratioP2
24761;SDS011;12865;51.934;10.330;2023-10-19T00:02:43;27.08;;;19.67;;
24761;SDS011;12865;51.934;10.330;2023-10-19T00:05:29;21.88;;;19.33;;
24761;SDS011;12865;51.934;10.330;2023-10-19T00:08:17;23.23;;;20.17;;
24761;SDS011;12865;51.934;10.330;2023-10-19T00:11:06;23.02;;;19.02;;
24761;SDS011;12865;51.934;10.330;2023-10-19T00:13:52;22.88;;;20.42;;
24761;SDS011;12865;51.934;10.330;2023-10-19T00:16:43;24.30;;;19.90;;
24761;SDS011;12865;51.934;10.330;2023-10-19T00:19:51;24.30;;;20.55;;
24761;SDS011;12865;51.934;10.330;2023-10-19T00:23:12;22.45;;;20.05;;
24761;SDS011;12865;51.934;10.330;2023-10-19T00:26:07;24.23;;;19.80;;
24761;SDS011;12865;51.934;10.330;2023-10-19T00:29:01;25.60;;;20.70;;
24761;SDS011;12865;51.934;10.330;2023-10-19T00:32:03;23.58;;;21.02;;
24761;SDS011;12865;51.934;10.330;2023-10-19T00:34:51;23.35;;;20.83;;
24761;SDS011;12865;51.934;10.330;2023-10-19T00:37:37;24.67;;;21.05;;
24761;SDS011;12865;51.934;10.330;2023-10-19T00:40:28;24.80;;;20.27;;
24761;SDS011;12865;51.934;10.330;2023-10-19T00:43:26;24.20;;;20.13;;
24761;SDS011;12865;51.934;10.330;2023-10-19T00:46:13;26.73;;;22.20;;
24761;SDS011;12865;51.934;10.330;2023-10-19T00:49:05;27.50;;;22.30;;
24761;SDS011;12865;51.934;10.330;2023-10-19T00:51:52;26.63;;;22.80;;
24761;SDS011;12865;51.934;10.330;2023-10-19T00:54:47;25.02;;;21.67;;
24761;SDS011;12865;51.934;10.330;2023-10-19T00:57:36;27.45;;;23.27;;
24761;SDS011;12865;51.934;10.330;2023-10-19T01:00:22;33.97;;;24.35;;
24761;SDS011;12865;51.934;10.330;2023-10-19T01:03:19;26.98;;;23.00;;
24761;SDS011;12865;51.934;10.330;2023-10-19T01:06:05;25.10;;;22.35;;
24761;SDS011;12865;51.934;10.330;2023-10-19T01:08:55;27.40;;;22.55;;
24761;SDS011;12865;51.934;10.330;2023-10-19T01:11:43;27.55;;;22.80;;
24761;SDS011;12865;51.934;10.330;2023-10-19T01:14:35;27.73;;;22.35;;
24761;SDS011;12865;51.934;10.330;2023-10-19T01:17:22;26.92;;;22.92;;
24761;SDS011;12865;51.934;10.330;2023-10-19T01:20:08;31.63;;;25.85;;
24761;SDS011;12865;51.934;10.330;2023-10-19T01:23:04;26.85;;;23.27;;
24761;SDS011;12865;51.934;10.330;2023-10-19T01:25:55;32.17;;;27.55;;
24761;SDS011;12865;51.934;10.330;2023-10-19T01:28:44;31.70;;;25.58;;
24761;SDS011;12865;51.934;10.330;2023-10-19T01:31:33;35.95;;;28.33;;
24761;SDS011;12865;51.934;10.330;2023-10-19T01:34:23;34.85;;;28.30;;
24761;SDS011;12865;51.934;10.330;2023-10-19T01:37:12;34.00;;;28.00;;
24761;SDS011;12865;51.934;10.330;2023-10-19T01:39:57;35.92;;;29.45;;
24761;SDS011;12865;51.934;10.330;2023-10-19T01:42:43;33.08;;;28.05;;
24761;SDS011;12865;51.934;10.330;2023-10-19T01:45:29;35.90;;;28.92;;
24761;SDS011;12865;51.934;10.330;2023-10-19T01:48:14;36.17;;;29.77;;
24761;SDS011;12865;51.934;10.330;2023-10-19T01:51:02;32.80;;;27.50;;
24761;SDS011;12865;51.934;10.330;2023-10-19T01:53:52;35.72;;;28.45;;
24761;SDS011;12865;51.934;10.330;2023-10-19T01:56:40;33.42;;;28.60;;
24761;SDS011;12865;51.934;10.330;2023-10-19T01:59:28;33.42;;;28.45;;
24761;SDS011;12865;51.934;10.330;2023-10-19T02:02:15;37.22;;;29.45;;
24761;SDS011;12865;51.934;10.330;2023-10-19T02:05:00;35.72;;;29.33;;
24761;SDS011;12865;51.934;10.330;2023-10-19T02:07:49;37.72;;;29.73;;
24761;SDS011;12865;51.934;10.330;2023-10-19T02:10:35;35.55;;;30.15;;
24761;SDS011;12865;51.934;10.330;2023-10-19T02:13:22;35.95;;;28.77;;
24761;SDS011;12865;51.934;10.330;2023-10-19T02:16:08;43.90;;;31.63;;
24761;SDS011;12865;51.934;10.330;2023-10-19T02:18:54;39.05;;;30.13;;
24761;SDS011;12865;51.934;10.330;2023-10-19T02:21:40;40.15;;;32.33;;
24761;SDS011;12865;51.934;10.330;2023-10-19T02:24:26;37.47;;;30.92;;
24761;SDS011;12865;51.934;10.330;2023-10-19T02:27:12;41.83;;;31.27;;
24761;SDS011;12865;51.934;10.330;2023-10-19T02:29:58;40.17;;;32.78;;
24761;SDS011;12865;51.934;10.330;2023-10-19T02:32:43;43.13;;;34.00;;
24761;SDS011;12865;51.934;10.330;2023-10-19T02:35:29;39.20;;;31.42;;
24761;SDS011;12865;51.934;10.330;2023-10-19T02:38:15;39.88;;;31.23;;
24761;SDS011;12865;51.934;10.330;2023-10-19T02:41:01;40.67;;;32.35;;
24761;SDS011;12865;51.934;10.330;2023-10-19T02:43:48;37.15;;;31.48;;
24761;SDS011;12865;51.934;10.330;2023-10-19T02:46:46;42.05;;;32.63;;
24761;SDS011;12865;51.934;10.330;2023-10-19T02:49:37;39.40;;;32.05;;
24761;SDS011;12865;51.934;10.330;2023-10-19T02:52:28;39.08;;;32.70;;
24761;SDS011;12865;51.934;10.330;2023-10-19T02:55:14;43.08;;;33.80;;
24761;SDS011;12865;51.934;10.330;2023-10-19T02:58:02;40.30;;;32.10;;
24761;SDS011;12865;51.934;10.330;2023-10-19T03:00:50;37.13;;;31.63;;
24761;SDS011;12865;51.934;10.330;2023-10-19T03:03:37;41.22;;;32.25;;
24761;SDS011;12865;51.934;10.330;2023-10-19T03:06:23;39.17;;;33.25;;
24761;SDS011;12865;51.934;10.330;2023-10-19T03:09:09;40.72;;;32.10;;
24761;SDS011;12865;51.934;10.330;2023-10-19T03:12:13;37.80;;;31.50;;
24761;SDS011;12865;51.934;10.330;2023-10-19T03:14:59;36.33;;;30.50;;
24761;SDS011;12865;51.934;10.330;2023-10-19T03:17:45;37.13;;;28.30;;
24761;SDS011;12865;51.934;10.330;2023-10-19T03:20:31;36.53;;;29.70;;
24761;SDS011;12865;51.934;10.330;2023-10-19T03:23:18;33.30;;;29.70;;
24761;SDS011;12865;51.934;10.330;2023-10-19T03:26:06;35.58;;;29.27;;
24761;SDS011;12865;51.934;10.330;2023-10-19T03:29:10;35.35;;;29.35;;
24761;SDS011;12865;51.934;10.330;2023-10-19T03:32:00;36.25;;;29.77;;
24761;SDS011;12865;51.934;10.330;2023-10-19T03:34:45;34.78;;;29.95;;
24761;SDS011;12865;51.934;10.330;2023-10-19T03:37:35;35.67;;;31.20;;
24761;SDS011;12865;51.934;10.330;2023-10-19T03:40:21;34.70;;;29.60;;
24761;SDS011;12865;51.934;10.330;2023-10-19T03:43:15;32.28;;;28.77;;
24761;SDS011;12865;51.934;10.330;2023-10-19T03:46:07;33.53;;;27.80;;
24761;SDS011;12865;51.934;10.330;2023-10-19T03:49:08;35.55;;;29.63;;
24761;SDS011;12865;51.934;10.330;2023-10-19T03:51:57;32.58;;;28.20;;
24761;SDS011;12865;51.934;10.330;2023-10-19T03:54:44;34.25;;;28.63;;
24761;SDS011;12865;51.934;10.330;2023-10-19T03:57:29;33.00;;;27.30;;
24761;SDS011;12865;51.934;10.330;2023-10-19T04:00:15;30.92;;;26.63;;
24761;SDS011;12865;51.934;10.330;2023-10-19T04:03:01;29.75;;;26.50;;
24761;SDS011;12865;51.934;10.330;2023-10-19T04:05:47;34.00;;;27.55;;
24761;SDS011;12865;51.934;10.330;2023-10-19T04:08:34;29.90;;;26.55;;
24761;SDS011;12865;51.934;10.330;2023-10-19T04:11:22;28.88;;;25.77;;
24761;SDS011;12865;51.934;10.330;2023-10-19T04:14:08;30.77;;;26.48;;
24761;SDS011;12865;51.934;10.330;2023-10-19T04:16:54;29.90;;;26.65;;
24761;SDS011;12865;51.934;10.330;2023-10-19T04:19:41;27.65;;;24.65;;
24761;SDS011;12865;51.934;10.330;2023-10-19T04:22:26;27.58;;;24.13;;
24761;SDS011;12865;51.934;10.330;2023-10-19T04:25:13;28.33;;;23.02;;
24761;SDS011;12865;51.934;10.330;2023-10-19T04:28:01;26.03;;;23.23;;
24761;SDS011;12865;51.934;10.330;2023-10-19T04:30:46;24.55;;;21.80;;
24761;SDS011;12865;51.934;10.330;2023-10-19T04:33:33;24.90;;;22.08;;
24761;SDS011;12865;51.934;10.330;2023-10-19T04:36:19;24.90;;;22.25;;
24761;SDS011;12865;51.934;10.330;2023-10-19T04:39:07;25.23;;;22.60;;
24761;SDS011;12865;51.934;10.330;2023-10-19T04:41:57;23.67;;;21.17;;
24761;SDS011;12865;51.934;10.330;2023-10-19T04:44:42;31.98;;;26.75;;
24761;SDS011;12865;51.934;10.330;2023-10-19T04:47:28;30.55;;;23.80;;
24761;SDS011;12865;51.934;10.330;2023-10-19T04:50:14;25.83;;;23.13;;
24761;SDS011;12865;51.934;10.330;2023-10-19T04:53:00;24.52;;;21.58;;
24761;SDS011;12865;51.934;10.330;2023-10-19T04:55:45;23.52;;;19.90;;
24761;SDS011;12865;51.934;10.330;2023-10-19T04:58:31;22.00;;;19.23;;
24761;SDS011;12865;51.934;10.330;2023-10-19T05:01:16;20.23;;;18.08;;
24761;SDS011;12865;51.934;10.330;2023-10-19T05:04:02;21.35;;;19.05;;
24761;SDS011;12865;51.934;10.330;2023-10-19T05:06:48;19.10;;;17.10;;
24761;SDS011;12865;51.934;10.330;2023-10-19T05:09:34;18.52;;;16.63;;
24761;SDS011;12865;51.934;10.330;2023-10-19T05:12:23;19.40;;;17.35;;
24761;SDS011;12865;51.934;10.330;2023-10-19T05:15:09;21.40;;;19.13;;
24761;SDS011;12865;51.934;10.330;2023-10-19T05:17:55;20.55;;;18.40;;
24761;SDS011;12865;51.934;10.330;2023-10-19T05:20:41;21.30;;;19.08;;
24761;SDS011;12865;51.934;10.330;2023-10-19T05:23:27;21.58;;;19.17;;
24761;SDS011;12865;51.934;10.330;2023-10-19T05:26:13;21.35;;;19.05;;
24761;SDS011;12865;51.934;10.330;2023-10-19T05:29:00;20.98;;;18.67;;
24761;SDS011;12865;51.934;10.330;2023-10-19T05:31:46;22.98;;;20.02;;
24761;SDS011;12865;51.934;10.330;2023-10-19T05:34:32;23.40;;;21.00;;
24761;SDS011;12865;51.934;10.330;2023-10-19T05:37:20;21.15;;;18.83;;
24761;SDS011;12865;51.934;10.330;2023-10-19T05:40:06;21.42;;;19.02;;
24761;SDS011;12865;51.934;10.330;2023-10-19T05:42:58;21.10;;;18.95;;
24761;SDS011;12865;51.934;10.330;2023-10-19T05:45:45;21.63;;;19.08;;
24761;SDS011;12865;51.934;10.330;2023-10-19T05:48:35;20.35;;;18.17;;
24761;SDS011;12865;51.934;10.330;2023-10-19T05:51:20;19.65;;;17.65;;
24761;SDS011;12865;51.934;10.330;2023-10-19T05:54:07;20.85;;;18.55;;
24761;SDS011;12865;51.934;10.330;2023-10-19T05:56:54;19.60;;;17.50;;
24761;SDS011;12865;51.934;10.330;2023-10-19T05:59:39;20.45;;;17.83;;
24761;SDS011;12865;51.934;10.330;2023-10-19T06:02:26;18.90;;;16.90;;
24761;SDS011;12865;51.934;10.330;2023-10-19T06:05:12;18.60;;;16.80;;
24761;SDS011;12865;51.934;10.330;2023-10-19T06:08:02;19.60;;;17.23;;
24761;SDS011;12865;51.934;10.330;2023-10-19T06:10:53;18.73;;;16.88;;
24761;SDS011;12865;51.934;10.330;2023-10-19T06:13:38;18.27;;;16.38;;
24761;SDS011;12865;51.934;10.330;2023-10-19T06:16:24;19.80;;;17.45;;
24761;SDS011;12865;51.934;10.330;2023-10-19T06:19:10;20.80;;;17.35;;
24761;SDS011;12865;51.934;10.330;2023-10-19T06:21:55;20.95;;;18.50;;
24761;SDS011;12865;51.934;10.330;2023-10-19T06:24:41;21.25;;;18.48;;
24761;SDS011;12865;51.934;10.330;2023-10-19T06:27:29;20.02;;;17.92;;
24761;SDS011;12865;51.934;10.330;2023-10-19T06:30:17;20.00;;;17.40;;
24761;SDS011;12865;51.934;10.330;2023-10-19T06:33:04;18.60;;;16.02;;
24761;SDS011;12865;51.934;10.330;2023-10-19T06:35:49;17.88;;;15.23;;
24761;SDS011;12865;51.934;10.330;2023-10-19T06:38:35;17.35;;;15.55;;
24761;SDS011;12865;51.934;10.330;2023-10-19T06:41:22;16.65;;;14.95;;
24761;SDS011;12865;51.934;10.330;2023-10-19T06:44:07;16.02;;;14.35;;
24761;SDS011;12865;51.934;10.330;2023-10-19T06:46:53;17.02;;;15.20;;
24761;SDS011;12865;51.934;10.330;2023-10-19T06:49:39;16.70;;;14.88;;
24761;SDS011;12865;51.934;10.330;2023-10-19T06:52:25;16.85;;;15.07;;
24761;SDS011;12865;51.934;10.330;2023-10-19T06:55:10;16.80;;;15.10;;
24761;SDS011;12865;51.934;10.330;2023-10-19T06:57:59;15.48;;;13.88;;
24761;SDS011;12865;51.934;10.330;2023-10-19T07:00:46;16.23;;;14.52;;
24761;SDS011;12865;51.934;10.330;2023-10-19T07:03:41;17.40;;;15.10;;
24761;SDS011;12865;51.934;10.330;2023-10-19T07:06:27;15.43;;;13.90;;
24761;SDS011;12865;51.934;10.330;2023-10-19T07:09:13;16.77;;;14.70;;
24761;SDS011;12865;51.934;10.330;2023-10-19T07:12:00;16.15;;;14.43;;
24761;SDS011;12865;51.934;10.330;2023-10-19T07:14:46;18.17;;;16.27;;
24761;SDS011;12865;51.934;10.330;2023-10-19T07:17:32;17.73;;;15.82;;
24761;SDS011;12865;51.934;10.330;2023-10-19T07:20:23;17.60;;;15.77;;
24761;SDS011;12865;51.934;10.330;2023-10-19T07:23:12;20.45;;;18.00;;
24761;SDS011;12865;51.934;10.330;2023-10-19T07:26:04;19.05;;;17.05;;
24761;SDS011;12865;51.934;10.330;2023-10-19T07:28:51;19.15;;;17.15;;
24761;SDS011;12865;51.934;10.330;2023-10-19T07:31:36;21.67;;;18.60;;
24761;SDS011;12865;51.934;10.330;2023-10-19T07:34:22;20.25;;;18.10;;
24761;SDS011;12865;51.934;10.330;2023-10-19T07:37:11;19.48;;;17.40;;
24761;SDS011;12865;51.934;10.330;2023-10-19T07:40:02;20.67;;;18.58;;
24761;SDS011;12865;51.934;10.330;2023-10-19T07:42:50;21.25;;;18.95;;
24761;SDS011;12865;51.934;10.330;2023-10-19T07:45:38;21.40;;;18.50;;
24761;SDS011;12865;51.934;10.330;2023-10-19T07:48:24;20.58;;;18.40;;
24761;SDS011;12865;51.934;10.330;2023-10-19T07:51:10;23.45;;;20.58;;
24761;SDS011;12865;51.934;10.330;2023-10-19T07:53:56;24.30;;;20.23;;
24761;SDS011;12865;51.934;10.330;2023-10-19T07:56:42;23.58;;;20.55;;
24761;SDS011;12865;51.934;10.330;2023-10-19T07:59:29;24.40;;;21.08;;
24761;SDS011;12865;51.934;10.330;2023-10-19T08:02:14;23.50;;;20.45;;
24761;SDS011;12865;51.934;10.330;2023-10-19T08:05:00;24.65;;;21.92;;
24761;SDS011;12865;51.934;10.330;2023-10-19T08:07:49;24.52;;;21.50;;
24761;SDS011;12865;51.934;10.330;2023-10-19T08:10:35;26.30;;;21.05;;
24761;SDS011;12865;51.934;10.330;2023-10-19T08:13:20;22.55;;;19.50;;
24761;SDS011;12865;51.934;10.330;2023-10-19T08:16:06;22.83;;;20.08;;
24761;SDS011;12865;51.934;10.330;2023-10-19T08:18:52;24.52;;;21.02;;
24761;SDS011;12865;51.934;10.330;2023-10-19T08:21:38;19.30;;;17.30;;
24761;SDS011;12865;51.934;10.330;2023-10-19T08:24:23;18.70;;;16.70;;
24761;SDS011;12865;51.934;10.330;2023-10-19T08:27:09;19.88;;;17.77;;
24761;SDS011;12865;51.934;10.330;2023-10-19T08:29:56;19.00;;;16.48;;
24761;SDS011;12865;51.934;10.330;2023-10-19T08:32:42;20.15;;;16.77;;
24761;SDS011;12865;51.934;10.330;2023-10-19T08:35:28;18.40;;;16.25;;
24761;SDS011;12865;51.934;10.330;2023-10-19T08:38:13;18.92;;;16.33;;
24761;SDS011;12865;51.934;10.330;2023-10-19T08:40:59;18.60;;;16.25;;
24761;SDS011;12865;51.934;10.330;2023-10-19T08:43:45;18.38;;;16.33;;
24761;SDS011;12865;51.934;10.330;2023-10-19T08:46:31;18.83;;;16.67;;
24761;SDS011;12865;51.934;10.330;2023-10-19T08:49:17;18.52;;;16.48;;
24761;SDS011;12865;51.934;10.330;2023-10-19T08:52:04;19.35;;;17.25;;
24761;SDS011;12865;51.934;10.330;2023-10-19T08:54:52;20.33;;;18.23;;
24761;SDS011;12865;51.934;10.330;2023-10-19T08:57:39;19.45;;;17.48;;
24761;SDS011;12865;51.934;10.330;2023-10-19T09:00:25;21.52;;;19.23;;
24761;SDS011;12865;51.934;10.330;2023-10-19T09:03:12;20.67;;;18.48;;
24761;SDS011;12865;51.934;10.330;2023-10-19T09:06:02;23.42;;;19.70;;
24761;SDS011;12865;51.934;10.330;2023-10-19T09:08:50;20.10;;;18.00;;
24761;SDS011;12865;51.934;10.330;2023-10-19T09:11:36;21.75;;;19.15;;
24761;SDS011;12865;51.934;10.330;2023-10-19T09:14:33;20.27;;;17.90;;
24761;SDS011;12865;51.934;10.330;2023-10-19T09:17:29;22.77;;;20.38;;
24761;SDS011;12865;51.934;10.330;2023-10-19T09:20:15;22.92;;;20.52;;
24761;SDS011;12865;51.934;10.330;2023-10-19T09:23:12;21.85;;;19.00;;
24761;SDS011;12865;51.934;10.330;2023-10-19T09:25:59;21.88;;;19.63;;
24761;SDS011;12865;51.934;10.330;2023-10-19T09:28:51;23.08;;;19.95;;
24761;SDS011;12865;51.934;10.330;2023-10-19T09:31:39;22.70;;;19.88;;
24761;SDS011;12865;51.934;10.330;2023-10-19T09:34:26;23.35;;;20.17;;
24761;SDS011;12865;51.934;10.330;2023-10-19T09:37:17;24.05;;;20.30;;
24761;SDS011;12865;51.934;10.330;2023-10-19T09:40:03;23.02;;;20.13;;
24761;SDS011;12865;51.934;10.330;2023-10-19T09:42:49;23.23;;;20.30;;
24761;SDS011;12865;51.934;10.330;2023-10-19T09:45:40;23.60;;;19.52;;
24761;SDS011;12865;51.934;10.330;2023-10-19T09:48:31;21.30;;;19.13;;
24761;SDS011;12865;51.934;10.330;2023-10-19T09:51:21;22.15;;;19.65;;
24761;SDS011;12865;51.934;10.330;2023-10-19T09:54:17;20.80;;;18.67;;
24761;SDS011;12865;51.934;10.330;2023-10-19T09:57:10;21.88;;;19.48;;
24761;SDS011;12865;51.934;10.330;2023-10-19T10:00:03;20.75;;;18.60;;
24761;SDS011;12865;51.934;10.330;2023-10-19T10:02:59;21.55;;;19.25;;
24761;SDS011;12865;51.934;10.330;2023-10-19T10:05:47;21.43;;;19.20;;
24761;SDS011;12865;51.934;10.330;2023-10-19T10:08:34;23.70;;;21.17;;
24761;SDS011;12865;51.934;10.330;2023-10-19T10:11:23;21.98;;;19.67;;
24761;SDS011;12865;51.934;10.330;2023-10-19T10:14:19;22.27;;;19.88;;
24761;SDS011;12865;51.934;10.330;2023-10-19T10:17:07;22.02;;;19.15;;
24761;SDS011;12865;51.934;10.330;2023-10-19T10:23:17;18.90;;;17.00;;
24761;SDS011;12865;51.934;10.330;2023-10-19T10:26:06;18.65;;;16.75;;
24761;SDS011;12865;51.934;10.330;2023-10-19T10:29:10;19.40;;;17.40;;
24761;SDS011;12865;51.934;10.330;2023-10-19T10:31:59;21.00;;;17.48;;
24761;SDS011;12865;51.934;10.330;2023-10-19T10:34:46;19.73;;;17.63;;
24761;SDS011;12865;51.934;10.330;2023-10-19T10:37:37;18.98;;;17.08;;
24761;SDS011;12865;51.934;10.330;2023-10-19T10:40:25;18.80;;;16.90;;
24761;SDS011;12865;51.934;10.330;2023-10-19T10:43:11;18.15;;;16.35;;
24761;SDS011;12865;51.934;10.330;2023-10-19T10:46:04;18.13;;;16.25;;
24761;SDS011;12865;51.934;10.330;2023-10-19T10:48:51;17.15;;;15.30;;
24761;SDS011;12865;51.934;10.330;2023-10-19T10:51:39;16.60;;;15.00;;
24761;SDS011;12865;51.934;10.330;2023-10-19T10:54:27;15.50;;;14.00;;
24761;SDS011;12865;51.934;10.330;2023-10-19T10:57:12;15.60;;;14.00;;
24761;SDS011;12865;51.934;10.330;2023-10-19T11:00:01;16.75;;;14.95;;
24761;SDS011;12865;51.934;10.330;2023-10-19T11:03:02;15.23;;;13.35;;
24761;SDS011;12865;51.934;10.330;2023-10-19T11:05:50;15.65;;;14.00;;
24761;SDS011;12865;51.934;10.330;2023-10-19T11:08:36;17.02;;;15.32;;
24761;SDS011;12865;51.934;10.330;2023-10-19T11:11:23;16.83;;;14.77;;
24761;SDS011;12865;51.934;10.330;2023-10-19T11:14:09;16.58;;;14.98;;
24761;SDS011;12865;51.934;10.330;2023-10-19T11:17:11;17.05;;;15.35;;
24761;SDS011;12865;51.934;10.330;2023-10-19T11:20:00;17.27;;;15.18;;
24761;SDS011;12865;51.934;10.330;2023-10-19T11:22:50;16.75;;;15.15;;
24761;SDS011;12865;51.934;10.330;2023-10-19T11:25:37;16.98;;;15.20;;
24761;SDS011;12865;51.934;10.330;2023-10-19T11:28:23;17.70;;;15.80;;
24761;SDS011;12865;51.934;10.330;2023-10-19T11:31:23;18.23;;;16.33;;
24761;SDS011;12865;51.934;10.330;2023-10-19T11:34:09;21.83;;;17.77;;
24761;SDS011;12865;51.934;10.330;2023-10-19T11:36:58;18.95;;;16.88;;
24761;SDS011;12865;51.934;10.330;2023-10-19T11:39:48;21.27;;;18.95;;
24761;SDS011;12865;51.934;10.330;2023-10-19T11:42:37;20.90;;;18.38;;
24761;SDS011;12865;51.934;10.330;2023-10-19T11:45:23;21.00;;;18.80;;
24761;SDS011;12865;51.934;10.330;2023-10-19T11:48:09;21.98;;;19.77;;
24761;SDS011;12865;51.934;10.330;2023-10-19T11:50:55;22.88;;;19.95;;
24761;SDS011;12865;51.934;10.330;2023-10-19T11:53:41;23.50;;;21.10;;
24761;SDS011;12865;51.934;10.330;2023-10-19T11:56:28;23.40;;;20.92;;
24761;SDS011;12865;51.934;10.330;2023-10-19T11:59:13;24.00;;;21.58;;
24761;SDS011;12865;51.934;10.330;2023-10-19T12:02:00;23.35;;;20.90;;
24761;SDS011;12865;51.934;10.330;2023-10-19T12:04:49;21.57;;;19.37;;
24761;SDS011;12865;51.934;10.330;2023-10-19T12:07:35;22.23;;;19.85;;
24761;SDS011;12865;51.934;10.330;2023-10-19T12:10:22;23.98;;;21.38;;
24761;SDS011;12865;51.934;10.330;2023-10-19T12:13:18;21.33;;;19.13;;
24761;SDS011;12865;51.934;10.330;2023-10-19T12:16:04;23.52;;;20.83;;
24761;SDS011;12865;51.934;10.330;2023-10-19T12:18:50;22.92;;;20.23;;
24761;SDS011;12865;51.934;10.330;2023-10-19T12:21:36;22.30;;;20.08;;
24761;SDS011;12865;51.934;10.330;2023-10-19T12:24:26;22.20;;;19.92;;
24761;SDS011;12865;51.934;10.330;2023-10-19T12:27:14;23.58;;;21.10;;
24761;SDS011;12865;51.934;10.330;2023-10-19T12:30:00;23.35;;;19.63;;
24761;SDS011;12865;51.934;10.330;2023-10-19T12:32:52;21.05;;;18.85;;
24761;SDS011;12865;51.934;10.330;2023-10-19T12:35:38;19.77;;;17.77;;
24761;SDS011;12865;51.934;10.330;2023-10-19T12:38:39;21.90;;;19.58;;
24761;SDS011;12865;51.934;10.330;2023-10-19T12:41:25;22.25;;;19.88;;
24761;SDS011;12865;51.934;10.330;2023-10-19T12:44:11;21.52;;;18.95;;
24761;SDS011;12865;51.934;10.330;2023-10-19T12:46:57;22.20;;;19.52;;
24761;SDS011;12865;51.934;10.330;2023-10-19T12:49:44;26.48;;;22.20;;
24761;SDS011;12865;51.934;10.330;2023-10-19T12:52:31;28.58;;;23.13;;
24761;SDS011;12865;51.934;10.330;2023-10-19T12:55:21;26.60;;;23.25;;
24761;SDS011;12865;51.934;10.330;2023-10-19T12:58:06;26.17;;;22.48;;
24761;SDS011;12865;51.934;10.330;2023-10-19T13:00:56;30.83;;;22.98;;
24761;SDS011;12865;51.934;10.330;2023-10-19T13:03:42;28.33;;;23.10;;
24761;SDS011;12865;51.934;10.330;2023-10-19T13:06:30;27.48;;;23.08;;
24761;SDS011;12865;51.934;10.330;2023-10-19T13:09:17;37.63;;;24.90;;
24761;SDS011;12865;51.934;10.330;2023-10-19T13:12:07;30.15;;;24.73;;
24761;SDS011;12865;51.934;10.330;2023-10-19T13:14:53;27.20;;;22.75;;
24761;SDS011;12865;51.934;10.330;2023-10-19T13:17:41;31.02;;;24.48;;
24761;SDS011;12865;51.934;10.330;2023-10-19T13:20:28;29.88;;;23.75;;
24761;SDS011;12865;51.934;10.330;2023-10-19T13:23:20;30.23;;;23.73;;
24761;SDS011;12865;51.934;10.330;2023-10-19T13:26:09;33.55;;;24.65;;
24761;SDS011;12865;51.934;10.330;2023-10-19T13:29:01;33.83;;;26.92;;
24761;SDS011;12865;51.934;10.330;2023-10-19T13:31:47;37.17;;;27.70;;
24761;SDS011;12865;51.934;10.330;2023-10-19T13:34:38;37.78;;;26.75;;
24761;SDS011;12865;51.934;10.330;2023-10-19T13:37:25;38.08;;;28.13;;
24761;SDS011;12865;51.934;10.330;2023-10-19T13:40:11;41.60;;;28.83;;
24761;SDS011;12865;51.934;10.330;2023-10-19T13:42:57;41.42;;;28.95;;
24761;SDS011;12865;51.934;10.330;2023-10-19T13:45:44;43.55;;;29.90;;
24761;SDS011;12865;51.934;10.330;2023-10-19T13:48:31;45.13;;;29.40;;
24761;SDS011;12865;51.934;10.330;2023-10-19T13:51:17;43.65;;;30.55;;
24761;SDS011;12865;51.934;10.330;2023-10-19T13:54:05;37.55;;;28.15;;
24761;SDS011;12865;51.934;10.330;2023-10-19T13:56:51;38.05;;;28.67;;
24761;SDS011;12865;51.934;10.330;2023-10-19T13:59:37;42.50;;;29.73;;
24761;SDS011;12865;51.934;10.330;2023-10-19T14:02:22;44.17;;;30.95;;
24761;SDS011;12865;51.934;10.330;2023-10-19T14:05:10;66.70;;;42.90;;
24761;SDS011;12865;51.934;10.330;2023-10-19T14:07:56;47.65;;;31.30;;
24761;SDS011;12865;51.934;10.330;2023-10-19T14:10:42;45.72;;;32.28;;
24761;SDS011;12865;51.934;10.330;2023-10-19T14:13:28;45.28;;;30.20;;
24761;SDS011;12865;51.934;10.330;2023-10-19T14:16:14;50.72;;;36.88;;
24761;SDS011;12865;51.934;10.330;2023-10-19T14:19:00;47.38;;;32.58;;
24761;SDS011;12865;51.934;10.330;2023-10-19T14:21:45;51.38;;;34.53;;
24761;SDS011;12865;51.934;10.330;2023-10-19T14:24:32;49.72;;;36.05;;
24761;SDS011;12865;51.934;10.330;2023-10-19T14:27:18;52.80;;;35.63;;
24761;SDS011;12865;51.934;10.330;2023-10-19T14:30:04;57.33;;;38.72;;
24761;SDS011;12865;51.934;10.330;2023-10-19T14:32:50;49.95;;;34.50;;
24761;SDS011;12865;51.934;10.330;2023-10-19T14:35:36;53.53;;;33.83;;
24761;SDS011;12865;51.934;10.330;2023-10-19T14:38:27;53.28;;;35.05;;
24761;SDS011;12865;51.934;10.330;2023-10-19T14:41:12;58.88;;;37.92;;
24761;SDS011;12865;51.934;10.330;2023-10-19T14:43:58;54.55;;;37.50;;
24761;SDS011;12865;51.934;10.330;2023-10-19T14:46:45;56.00;;;37.25;;
24761;SDS011;12865;51.934;10.330;2023-10-19T14:49:32;57.42;;;38.45;;
24761;SDS011;12865;51.934;10.330;2023-10-19T14:52:18;63.83;;;39.25;;
24761;SDS011;12865;51.934;10.330;2023-10-19T14:55:06;60.55;;;38.33;;
24761;SDS011;12865;51.934;10.330;2023-10-19T14:57:53;63.88;;;39.65;;
24761;SDS011;12865;51.934;10.330;2023-10-19T15:00:40;66.30;;;40.50;;
24761;SDS011;12865;51.934;10.330;2023-10-19T15:03:35;60.97;;;39.85;;
24761;SDS011;12865;51.934;10.330;2023-10-19T15:06:21;68.30;;;42.05;;
24761;SDS011;12865;51.934;10.330;2023-10-19T15:09:07;68.63;;;42.20;;
24761;SDS011;12865;51.934;10.330;2023-10-19T15:12:00;67.53;;;41.15;;
24761;SDS011;12865;51.934;10.330;2023-10-19T15:14:45;73.53;;;42.05;;
24761;SDS011;12865;51.934;10.330;2023-10-19T15:17:31;64.28;;;41.63;;
24761;SDS011;12865;51.934;10.330;2023-10-19T15:20:17;66.05;;;41.28;;
24761;SDS011;12865;51.934;10.330;2023-10-19T15:23:02;73.65;;;45.05;;
24761;SDS011;12865;51.934;10.330;2023-10-19T15:25:49;65.82;;;41.55;;
24761;SDS011;12865;51.934;10.330;2023-10-19T15:28:34;66.28;;;40.40;;
24761;SDS011;12865;51.934;10.330;2023-10-19T15:31:20;73.25;;;43.42;;
24761;SDS011;12865;51.934;10.330;2023-10-19T15:34:07;69.93;;;43.30;;
24761;SDS011;12865;51.934;10.330;2023-10-19T15:36:54;66.45;;;42.97;;
24761;SDS011;12865;51.934;10.330;2023-10-19T15:39:39;64.95;;;41.05;;
24761;SDS011;12865;51.934;10.330;2023-10-19T15:42:25;66.90;;;43.17;;
24761;SDS011;12865;51.934;10.330;2023-10-19T15:45:11;76.50;;;42.65;;
24761;SDS011;12865;51.934;10.330;2023-10-19T15:47:58;62.65;;;40.45;;
24761;SDS011;12865;51.934;10.330;2023-10-19T15:50:46;67.68;;;40.35;;
24761;SDS011;12865;51.934;10.330;2023-10-19T15:53:32;66.70;;;40.28;;
24761;SDS011;12865;51.934;10.330;2023-10-19T15:56:19;66.43;;;40.72;;
24761;SDS011;12865;51.934;10.330;2023-10-19T15:59:08;64.80;;;40.05;;
24761;SDS011;12865;51.934;10.330;2023-10-19T16:01:53;65.55;;;41.10;;
24761;SDS011;12865;51.934;10.330;2023-10-19T16:04:43;70.05;;;43.72;;
24761;SDS011;12865;51.934;10.330;2023-10-19T16:07:30;69.05;;;42.22;;
24761;SDS011;12865;51.934;10.330;2023-10-19T16:10:16;70.38;;;42.22;;
24761;SDS011;12865;51.934;10.330;2023-10-19T16:13:03;70.68;;;42.90;;